Terminal Aerodrome Forecast
Issued by NWS

Home | Current Version | Previous Version | Text Only | Print | Product List | Glossary On
Versions: 1 2 3 4 5 6 7 8 9 10 11 12 13 14 15 16 17 18 19 20 21
000
FTUS43 KIND 232332
TAFHUF
TAF
KHUF 232332Z 2400/2424 15006KT P6SM BKN060
     FM240500 16010KT P6SM BKN060
     FM240800 18013G22KT P6SM BKN070
     FM241500 19017G28KT P6SM OVC020
     FM241700 20018G27KT P6SM OVC035=

USA.gov is the U.S. government's official web portal to all federal, state and local government web resources and services.